Time;durP1;ratioP1;P1;durP2;ratioP2;P2;SDS_P1;SDS_P2;PMS_P1;PMS_P2;Temp;Humidity;BMP_temperature;BMP_pressure;BME280_temperature;BME280_humidity;BME280_pressure;Samples;Min_cycle;Max_cycle;Signal;HPM_P1;HPM_P2
2023/01/16 00:02:00;;;;;;;3.95;2.70;;;6.40;99.90;;;;;;5070347;28;20497;-73
2023/01/16 00:04:27;;;;;;;3.15;2.30;;;6.40;99.90;;;;;;5059978;28;20066;-73
2023/01/16 00:06:53;;;;;;;4.85;2.67;;;6.40;99.90;;;;;;5092896;28;20434;-73
2023/01/16 00:09:18;;;;;;;5.13;2.30;;;6.40;99.90;;;;;;5058625;28;20040;-73
2023/01/16 00:11:44;;;;;;;4.65;2.40;;;6.40;99.90;;;;;;5072657;28;20048;-73
2023/01/16 00:14:10;;;;;;;4.35;2.35;;;6.40;99.90;;;;;;5072290;28;20072;-73
2023/01/16 00:16:36;;;;;;;4.37;2.80;;;6.40;99.90;;;;;;5055709;28;20394;-73
2023/01/16 00:19:02;;;;;;;5.70;3.30;;;6.50;99.90;;;;;;5072050;28;20402;-73
2023/01/16 00:21:28;;;;;;;5.57;2.90;;;6.50;99.90;;;;;;5077043;28;20130;-73
2023/01/16 00:23:58;;;;;;;3.60;2.80;;;6.50;99.90;;;;;;5077233;28;20063;-73
2023/01/16 00:26:25;;;;;;;5.72;3.70;;;6.40;99.90;;;;;;5070612;28;20055;-73
2023/01/16 00:28:50;;;;;;;5.22;3.40;;;6.40;99.90;;;;;;5071734;28;20066;-73
2023/01/16 00:31:16;;;;;;;4.20;3.42;;;6.50;99.90;;;;;;5080648;28;20554;-73
2023/01/16 00:33:42;;;;;;;4.68;2.85;;;6.40;99.90;;;;;;5075323;28;20044;-73
2023/01/16 00:36:11;;;;;;;4.15;2.90;;;6.40;99.90;;;;;;5075330;28;20055;-73
2023/01/16 00:38:37;;;;;;;6.45;3.33;;;6.50;99.90;;;;;;5091716;28;20114;-73
2023/01/16 00:41:03;;;;;;;5.20;3.25;;;6.40;99.90;;;;;;5092406;28;20139;-73
2023/01/16 00:43:29;;;;;;;6.50;3.50;;;6.40;99.90;;;;;;5092118;28;20072;-73
2023/01/16 00:45:56;;;;;;;3.50;2.70;;;6.30;99.90;;;;;;5092032;28;20475;-73
2023/01/16 00:48:22;;;;;;;3.92;2.70;;;6.20;99.90;;;;;;5091856;28;20420;-73
2023/01/16 00:50:48;;;;;;;;;;;6.20;99.90;;;;;;5075647;28;20040;-73
2023/01/16 00:53:14;;;;;;;3.30;2.20;;;6.10;99.90;;;;;;5091857;28;20428;-73
2023/01/16 00:55:41;;;;;;;3.53;2.20;;;6.00;99.90;;;;;;5105595;28;20050;-73
2023/01/16 00:58:08;;;;;;;4.80;2.40;;;6.00;99.90;;;;;;5074700;28;20506;-73
2023/01/16 01:00:35;;;;;;;3.35;2.10;;;5.90;99.90;;;;;;5090776;28;20051;-73
2023/01/16 01:03:01;;;;;;;3.40;2.10;;;5.90;99.90;;;;;;5090490;28;20093;-73
2023/01/16 01:05:27;;;;;;;3.00;1.88;;;5.80;99.90;;;;;;5091419;28;20119;-73
2023/01/16 01:07:53;;;;;;;3.60;1.95;;;5.70;99.90;;;;;;5074506;28;20147;-73
2023/01/16 01:10:18;;;;;;;3.22;1.80;;;5.70;99.90;;;;;;5092886;28;20206;-73
2023/01/16 01:12:44;;;;;;;3.97;2.55;;;5.70;99.90;;;;;;5091381;28;20032;-73
2023/01/16 01:15:10;;;;;;;3.30;1.80;;;5.70;99.90;;;;;;5091779;28;20120;-73
2023/01/16 01:17:36;;;;;;;3.53;2.10;;;5.70;99.90;;;;;;5091397;28;20483;-73
2023/01/16 01:20:03;;;;;;;2.40;1.83;;;5.80;99.90;;;;;;5074467;28;20044;-73
2023/01/16 01:22:28;;;;;;;3.45;2.00;;;5.70;99.90;;;;;;5091604;28;20171;-73
2023/01/16 01:24:54;;;;;;;2.85;1.88;;;5.70;99.90;;;;;;5091522;28;20126;-73
2023/01/16 01:27:20;;;;;;;2.03;1.75;;;5.70;99.90;;;;;;5074268;28;20414;-73
2023/01/16 01:29:45;;;;;;;3.72;1.80;;;5.70;99.90;;;;;;5090616;28;20181;-73
2023/01/16 01:32:11;;;;;;;2.72;1.55;;;5.80;99.90;;;;;;5090408;28;20160;-73
2023/01/16 01:34:37;;;;;;;2.55;1.25;;;5.80;99.90;;;;;;5090900;28;20051;-73
2023/01/16 01:37:05;;;;;;;2.13;1.60;;;5.80;99.90;;;;;;5074487;28;20578;-73
2023/01/16 01:39:31;;;;;;;3.72;1.60;;;5.80;99.90;;;;;;5090356;28;20036;-73
2023/01/16 01:45:15;;;;;;;3.95;1.50;;;5.80;99.90;;;;;;5091069;28;20074;-73
2023/01/16 01:47:48;;;;;;;4.40;1.58;;;5.80;99.90;;;;;;5090733;28;20494;-73
2023/01/16 01:50:29;;;;;;;3.22;1.15;;;5.80;99.90;;;;;;5097595;28;20059;-73
2023/01/16 01:52:59;;;;;;;3.15;1.40;;;5.70;99.90;;;;;;5094163;28;20141;-73
2023/01/16 01:55:25;;;;;;;2.90;1.27;;;5.70;99.90;;;;;;5098216;28;20047;-73
2023/01/16 01:57:56;;;;;;;3.38;1.63;;;5.70;99.90;;;;;;5088051;28;20390;-73
2023/01/16 02:00:25;;;;;;;3.42;1.50;;;5.70;99.90;;;;;;5089890;28;20115;-73
2023/01/16 02:03:04;;;;;;;3.35;1.50;;;5.70;99.90;;;;;;5078355;28;20104;-73
2023/01/16 02:05:34;;;;;;;2.38;1.23;;;5.70;99.90;;;;;;5075199;28;20383;-73
2023/01/16 02:08:02;;;;;;;3.33;1.50;;;5.70;99.90;;;;;;5091967;28;20089;-73
2023/01/16 02:10:41;;;;;;;2.38;1.30;;;5.80;99.90;;;;;;5093869;28;20118;-73
2023/01/16 02:13:07;;;;;;;3.03;1.45;;;5.80;99.90;;;;;;5119540;27;20097;-73
2023/01/16 02:15:33;;;;;;;1.60;1.10;;;5.80;99.90;;;;;;5073565;28;20061;-73
2023/01/16 02:21:19;;;;;;;1.85;1.10;;;5.80;99.90;;;;;;5097184;28;20084;-73
2023/01/16 02:24:16;;;;;;;2.22;1.00;;;5.90;99.90;;;;;;5101066;28;20121;-73
2023/01/16 02:26:57;;;;;;;3.03;1.30;;;5.90;99.90;;;;;;5103459;28;20039;-73
2023/01/16 02:29:34;;;;;;;2.75;1.60;;;5.90;99.90;;;;;;5107610;28;20048;-73
2023/01/16 02:32:21;;;;;;;3.72;1.38;;;5.90;99.90;;;;;;5074779;28;20097;-73
2023/01/16 02:35:19;;;;;;;2.20;1.38;;;6.00;99.90;;;;;;5085860;28;20044;-73
2023/01/16 02:38:07;;;;;;;3.53;1.63;;;6.10;99.90;;;;;;5059547;28;20048;-73
2023/01/16 02:40:45;;;;;;;2.70;1.20;;;6.10;99.90;;;;;;5086298;28;20044;-73
2023/01/16 02:43:35;;;;;;;3.28;1.52;;;6.10;99.90;;;;;;5095015;28;20055;-73
2023/01/16 02:46:16;;;;;;;2.58;1.58;;;6.20;99.90;;;;;;5092108;28;20047;-73
2023/01/16 02:48:50;;;;;;;4.18;1.92;;;6.20;99.90;;;;;;5085473;28;20106;-73
2023/01/16 02:51:37;;;;;;;4.38;1.80;;;6.20;99.90;;;;;;5085106;28;20044;-73
2023/01/16 02:54:24;;;;;;;5.43;2.25;;;6.30;99.90;;;;;;5069721;28;20554;-73
2023/01/16 02:56:57;;;;;;;6.53;2.20;;;6.30;99.90;;;;;;5068432;28;20056;-73
2023/01/16 02:59:26;;;;;;;3.92;1.80;;;6.30;99.90;;;;;;5069057;28;20119;-73
2023/01/16 03:01:52;;;;;;;5.70;1.80;;;6.30;99.90;;;;;;5097135;28;20046;-73
2023/01/16 03:04:42;;;;;;;3.25;1.52;;;6.40;99.90;;;;;;5101870;28;20048;-73
2023/01/16 03:07:17;;;;;;;4.68;2.08;;;6.30;99.90;;;;;;5083851;28;20055;-73
2023/01/16 03:10:05;;;;;;;3.88;1.80;;;6.40;99.90;;;;;;5090787;28;20053;-74
2023/01/16 03:12:47;;;;;;;2.45;1.20;;;6.40;99.90;;;;;;5053263;28;20041;-73
2023/01/16 03:15:35;;;;;;;1.98;1.30;;;6.40;99.90;;;;;;5102474;28;20063;-73
2023/01/16 03:18:17;;;;;;;3.05;1.60;;;6.40;99.90;;;;;;5086303;28;20162;-73
2023/01/16 03:21:04;;;;;;;4.18;1.58;;;6.30;99.90;;;;;;5069805;28;20055;-73
2023/01/16 03:23:53;;;;;;;4.97;1.90;;;6.40;99.90;;;;;;5078527;28;20057;-73
2023/01/16 03:26:42;;;;;;;3.15;1.65;;;6.40;99.90;;;;;;5068010;28;20109;-73
2023/01/16 03:29:30;;;;;;;2.80;1.60;;;6.30;99.90;;;;;;5085548;28;20040;-73
2023/01/16 03:32:12;;;;;;;4.15;1.73;;;6.40;99.90;;;;;;5064191;28;20056;-73
2023/01/16 03:35:02;;;;;;;4.20;1.70;;;6.40;99.90;;;;;;5068838;28;20045;-73
2023/01/16 03:37:40;;;;;;;4.18;1.70;;;6.40;99.90;;;;;;5064898;28;20076;-73
2023/01/16 03:40:10;;;;;;;5.68;2.22;;;6.40;99.90;;;;;;5070746;28;20075;-73
2023/01/16 03:42:52;;;;;;;3.67;1.70;;;6.20;99.90;;;;;;5085191;28;20036;-73
2023/01/16 03:45:51;;;;;;;4.00;1.52;;;6.20;99.90;;;;;;5064141;28;20457;-73
2023/01/16 03:48:32;;;;;;;2.30;1.38;;;6.10;99.90;;;;;;5054318;28;20475;-73
2023/01/16 03:51:02;;;;;;;2.20;1.20;;;6.00;99.90;;;;;;5070526;28;20131;-73
2023/01/16 03:53:32;;;;;;;1.95;1.00;;;6.10;99.90;;;;;;5067622;28;20033;-73
2023/01/16 03:56:20;;;;;;;1.85;1.08;;;5.90;99.90;;;;;;5080761;28;20044;-73
2023/01/16 03:58:48;;;;;;;2.42;1.17;;;5.90;99.90;;;;;;5080096;28;20040;-73
2023/01/16 04:01:22;;;;;;;2.78;1.25;;;5.90;99.90;;;;;;5076291;28;20051;-73
2023/01/16 04:04:02;;;;;;;2.65;1.00;;;6.00;99.90;;;;;;5068301;28;20131;-73
2023/01/16 04:06:34;;;;;;;2.35;1.48;;;5.90;99.90;;;;;;5070696;28;20039;-73
2023/01/16 04:09:06;;;;;;;4.00;1.73;;;6.00;99.90;;;;;;5080354;28;20043;-73
2023/01/16 04:11:33;;;;;;;4.07;1.63;;;6.10;99.90;;;;;;5055613;28;20118;-73
2023/01/16 04:14:00;;;;;;;2.85;1.67;;;6.10;99.90;;;;;;5073547;28;20056;-73
2023/01/16 04:16:29;;;;;;;2.42;1.40;;;6.10;99.90;;;;;;5072534;28;20071;-74
2023/01/16 04:18:57;;;;;;;4.65;2.60;;;6.20;99.90;;;;;;5068998;28;20063;-74
2023/01/16 04:21:27;;;;;;;5.97;2.33;;;6.20;99.90;;;;;;5074679;28;20460;-74
2023/01/16 04:23:56;;;;;;;5.50;2.35;;;6.20;99.90;;;;;;5054796;28;20123;-74
2023/01/16 04:26:22;;;;;;;5.70;2.75;;;6.30;99.90;;;;;;5066761;28;20071;-74
2023/01/16 04:28:53;;;;;;;4.28;2.40;;;6.30;99.90;;;;;;5082904;28;20500;-74
2023/01/16 04:31:19;;;;;;;5.60;1.95;;;6.20;99.90;;;;;;5075851;28;20145;-74
2023/01/16 04:33:44;;;;;;;4.53;1.95;;;6.20;99.90;;;;;;5069847;28;20056;-74
2023/01/16 04:36:10;;;;;;;3.80;2.10;;;6.10;99.90;;;;;;5059608;28;20032;-74
2023/01/16 04:38:36;;;;;;;5.03;2.53;;;6.20;99.90;;;;;;5071240;28;20133;-74
2023/01/16 04:41:01;;;;;;;4.53;2.60;;;6.10;99.90;;;;;;5083285;28;20310;-74
2023/01/16 04:43:27;;;;;;;3.30;2.13;;;6.20;99.90;;;;;;5071742;28;20056;-73
2023/01/16 04:45:55;;;;;;;3.65;2.00;;;6.20;99.90;;;;;;5082250;28;20498;-74
2023/01/16 04:48:21;;;;;;;3.63;2.30;;;6.20;99.90;;;;;;5075124;28;20040;-73
2023/01/16 04:50:50;;;;;;;2.77;1.90;;;6.20;99.90;;;;;;5062708;28;20040;-73
2023/01/16 04:53:16;;;;;;;4.18;2.20;;;6.20;99.90;;;;;;5076836;28;20298;-74
2023/01/16 04:55:41;;;;;;;4.75;2.40;;;6.20;99.90;;;;;;5070656;28;20044;-74
2023/01/16 04:58:07;;;;;;;6.45;2.90;;;6.20;99.90;;;;;;5070394;28;20075;-74
2023/01/16 05:00:33;;;;;;;4.00;2.45;;;6.30;99.90;;;;;;5039470;28;20044;-74
2023/01/16 05:02:59;;;;;;;2.40;2.05;;;6.30;99.90;;;;;;5071724;28;20044;-74
2023/01/16 05:05:24;;;;;;;4.18;2.00;;;6.30;99.90;;;;;;5072729;28;20476;-74
2023/01/16 05:08:15;;;;;;;4.22;2.58;;;6.30;99.90;;;;;;5071141;28;20044;-74
2023/01/16 05:10:36;;;;;;;5.13;2.55;;;6.30;99.90;;;;;;5078488;28;20084;-74
2023/01/16 05:13:01;;;;;;;4.38;2.70;;;6.30;99.90;;;;;;5082742;28;20072;-73
2023/01/16 05:15:27;;;;;;;3.35;2.40;;;6.30;99.90;;;;;;5069533;28;20047;-74
2023/01/16 05:17:54;;;;;;;4.68;3.17;;;6.30;99.90;;;;;;5080383;28;20453;-74
2023/01/16 05:20:20;;;;;;;4.65;3.10;;;6.30;99.90;;;;;;5069985;28;20053;-74
2023/01/16 05:22:45;;;;;;;4.75;2.88;;;6.20;99.90;;;;;;5070950;28;20064;-74
2023/01/16 05:25:11;;;;;;;5.22;3.65;;;6.10;99.90;;;;;;5069966;28;20547;-74
2023/01/16 05:27:37;;;;;;;4.80;2.80;;;6.20;99.90;;;;;;5070991;28;20051;-74
2023/01/16 05:30:03;;;;;;;2.75;2.25;;;6.10;99.90;;;;;;5054543;28;20076;-74
2023/01/16 05:32:28;;;;;;;2.72;1.98;;;6.10;99.90;;;;;;5099563;28;20043;-74
2023/01/16 05:34:54;;;;;;;3.25;2.47;;;6.00;99.90;;;;;;5094421;28;20415;-74
2023/01/16 05:37:20;;;;;;;3.10;2.45;;;6.00;99.90;;;;;;5077046;28;20041;-74
2023/01/16 05:39:46;;;;;;;5.50;2.90;;;5.90;99.90;;;;;;5088156;28;20122;-74
2023/01/16 05:42:20;;;;;;;4.50;2.83;;;5.90;99.90;;;;;;5094031;27;20042;-74
2023/01/16 05:44:48;;;;;;;3.58;2.65;;;5.80;99.90;;;;;;5092828;28;20045;-73
2023/01/16 05:47:14;;;;;;;2.70;2.10;;;5.70;99.90;;;;;;5104325;27;20066;-73
2023/01/16 05:49:39;;;;;;;2.97;2.50;;;5.70;99.90;;;;;;5094008;28;20044;-73
2023/01/16 05:52:05;;;;;;;2.92;2.58;;;5.70;99.90;;;;;;5093999;28;20491;-73
2023/01/16 05:54:31;;;;;;;4.25;2.47;;;5.70;99.90;;;;;;5104544;27;20496;-73
2023/01/16 05:56:56;;;;;;;3.83;2.72;;;5.60;99.90;;;;;;5091709;27;20094;-74
2023/01/16 05:59:22;;;;;;;3.97;2.63;;;5.60;99.90;;;;;;5093924;28;20035;-74
2023/01/16 06:01:48;;;;;;;4.68;2.30;;;5.70;99.90;;;;;;5067863;27;20043;-74
2023/01/16 06:04:14;;;;;;;4.70;3.38;;;5.60;99.90;;;;;;5119045;27;20416;-74
2023/01/16 06:06:39;;;;;;;3.63;2.90;;;5.60;99.90;;;;;;5090647;28;20415;-74
2023/01/16 06:09:05;;;;;;;3.95;2.90;;;5.60;99.90;;;;;;5091743;28;20470;-74
2023/01/16 06:11:31;;;;;;;5.70;3.45;;;5.60;99.90;;;;;;5076382;28;20047;-75
2023/01/16 06:13:56;;;;;;;5.80;4.18;;;5.70;99.90;;;;;;5075022;28;20051;-74
2023/01/16 06:16:25;;;;;;;6.45;4.22;;;5.70;99.90;;;;;;5092138;28;20134;-74
2023/01/16 06:18:50;;;;;;;7.65;4.60;;;5.60;99.90;;;;;;5111203;27;20044;-74
2023/01/16 06:21:16;;;;;;;6.38;4.13;;;5.70;99.90;;;;;;5095239;28;20043;-74
2023/01/16 06:23:42;;;;;;;7.60;4.15;;;5.60;99.90;;;;;;5075436;28;20043;-75
2023/01/16 06:26:09;;;;;;;7.07;4.93;;;5.60;99.90;;;;;;5092676;28;20053;-75
2023/01/16 06:28:36;;;;;;;7.55;5.30;;;5.70;99.90;;;;;;5090920;28;20043;-75
2023/01/16 06:31:03;;;;;;;7.80;5.63;;;5.80;99.90;;;;;;5094913;28;20104;-75
2023/01/16 06:33:29;;;;;;;8.65;6.00;;;5.80;99.90;;;;;;5090266;28;20050;-75
2023/01/16 06:35:54;;;;;;;10.05;6.05;;;6.00;99.90;;;;;;5072250;28;20036;-75
2023/01/16 06:38:20;;;;;;;9.88;6.85;;;6.00;99.90;;;;;;5084801;28;20047;-75
2023/01/16 06:40:46;;;;;;;9.35;6.90;;;6.00;99.90;;;;;;5088143;28;20096;-72
2023/01/16 06:43:12;;;;;;;8.15;6.65;;;6.10;99.90;;;;;;5092793;28;20043;-74
2023/01/16 06:45:38;;;;;;;8.82;6.68;;;6.10;99.90;;;;;;5072569;28;20047;-74
2023/01/16 06:48:04;;;;;;;9.27;6.90;;;6.10;99.90;;;;;;5085610;27;20047;-74
2023/01/16 06:50:29;;;;;;;10.18;6.72;;;6.00;99.90;;;;;;5092133;28;20379;-74
2023/01/16 06:52:55;;;;;;;9.80;6.88;;;6.00;99.90;;;;;;5091690;28;20039;-73
2023/01/16 06:55:21;;;;;;;9.95;6.97;;;6.10;99.90;;;;;;5091368;27;20039;-73
2023/01/16 06:57:47;;;;;;;9.02;6.60;;;6.00;99.90;;;;;;5108949;27;20031;-74
2023/01/16 07:00:14;;;;;;;8.85;5.88;;;6.00;99.90;;;;;;5090330;28;20479;-74
2023/01/16 07:02:40;;;;;;;;;;;6.00;99.90;;;;;;5094035;27;20426;-74
2023/01/16 07:05:10;;;;;;;8.70;5.78;;;6.10;99.90;;;;;;5103046;28;19915;-74
2023/01/16 07:07:36;;;;;;;7.15;5.43;;;6.00;99.90;;;;;;5102239;27;20043;-74
2023/01/16 07:10:03;;;;;;;11.05;6.75;;;5.90;99.90;;;;;;5091514;28;20448;-74
2023/01/16 07:12:29;;;;;;;10.55;5.95;;;6.00;99.90;;;;;;5095254;28;20090;-74
2023/01/16 07:23:18;;;;;;;6.13;4.95;;;6.00;99.90;;;;;;5090860;28;20405;-74
2023/01/16 07:25:44;;;;;;;9.88;4.82;;;5.90;99.90;;;;;;5077611;28;21649;-75
2023/01/16 07:28:10;;;;;;;6.57;4.90;;;6.00;99.90;;;;;;5106517;28;20404;-74
2023/01/16 07:30:35;;;;;;;7.45;5.20;;;6.00;99.90;;;;;;5073097;28;20064;-75
2023/01/16 07:33:01;;;;;;;9.95;4.82;;;6.00;99.90;;;;;;5092636;28;20048;-75
2023/01/16 07:35:27;;;;;;;6.18;4.25;;;6.00;99.90;;;;;;5090472;28;20360;-73
2023/01/16 07:37:56;;;;;;;6.80;5.43;;;5.90;99.90;;;;;;5091360;28;20075;-74
2023/01/16 07:40:23;;;;;;;6.70;4.70;;;5.90;99.90;;;;;;5099982;28;20095;-75
2023/01/16 07:42:52;;;;;;;6.53;4.20;;;5.90;99.90;;;;;;5108249;28;20588;-74
2023/01/16 07:45:18;;;;;;;6.00;4.25;;;5.90;99.90;;;;;;5095066;28;20040;-74
2023/01/16 07:47:43;;;;;;;5.60;3.88;;;5.80;99.90;;;;;;5074276;28;20039;-74
2023/01/16 07:50:09;;;;;;;7.95;4.68;;;5.80;99.90;;;;;;5073911;28;20097;-74
2023/01/16 07:52:35;;;;;;;7.50;5.45;;;5.90;99.90;;;;;;5091826;28;20104;-74
2023/01/16 07:55:01;;;;;;;8.50;4.05;;;5.90;99.90;;;;;;5092157;28;20044;-73
2023/01/16 07:57:27;;;;;;;6.70;4.97;;;5.90;99.90;;;;;;5092328;28;20031;-74
2023/01/16 07:59:53;;;;;;;7.38;4.88;;;5.90;99.90;;;;;;5091366;28;20043;-74
2023/01/16 08:02:19;;;;;;;9.77;6.15;;;5.90;99.90;;;;;;5091916;28;20406;-74
2023/01/16 08:04:45;;;;;;;10.13;5.80;;;6.00;99.90;;;;;;5092637;28;20095;-74
2023/01/16 08:07:10;;;;;;;9.85;5.45;;;6.00;99.90;;;;;;5092294;28;20394;-74
2023/01/16 08:09:36;;;;;;;11.45;5.75;;;5.90;99.90;;;;;;5092218;28;20035;-74
2023/01/16 08:12:02;;;;;;;10.50;5.80;;;6.00;99.90;;;;;;5092076;28;20556;-73
2023/01/16 08:14:28;;;;;;;7.35;5.43;;;5.90;99.90;;;;;;5095646;28;20065;-74
2023/01/16 08:16:54;;;;;;;8.90;5.43;;;6.00;99.90;;;;;;5096118;28;20043;-74
2023/01/16 08:19:20;;;;;;;7.40;5.45;;;6.00;99.90;;;;;;5095909;28;20039;-74
2023/01/16 08:21:45;;;;;;;9.05;5.43;;;6.00;99.90;;;;;;5095876;28;20159;-74
2023/01/16 08:24:13;;;;;;;8.43;5.65;;;6.00;99.90;;;;;;5092227;28;20044;-74
2023/01/16 08:26:39;;;;;;;8.70;5.07;;;6.10;99.90;;;;;;5075602;28;20048;-74
2023/01/16 08:29:05;;;;;;;8.05;4.93;;;6.00;99.90;;;;;;5075859;28;20055;-74
2023/01/16 08:31:31;;;;;;;8.77;4.47;;;6.10;99.90;;;;;;5093726;28;20127;-74
2023/01/16 08:33:57;;;;;;;5.97;4.45;;;6.00;99.90;;;;;;5075574;28;20122;-74
2023/01/16 08:36:23;;;;;;;7.25;4.18;;;6.10;99.90;;;;;;5075436;28;20425;-74
2023/01/16 08:38:49;;;;;;;7.28;4.68;;;6.10;99.90;;;;;;5075391;28;20086;-73
2023/01/16 08:52:30;;;;;;;7.63;4.22;;;6.30;99.90;;;;;;5092107;28;20059;-74
2023/01/16 08:54:57;;;;;;;6.63;4.40;;;6.30;99.90;;;;;;5091884;28;20048;-74
2023/01/16 08:57:23;;;;;;;10.02;5.00;;;6.40;99.90;;;;;;5075127;28;20054;-74
2023/01/16 08:59:49;;;;;;;10.45;4.40;;;6.40;99.90;;;;;;5058546;28;20435;-74
2023/01/16 09:02:15;;;;;;;11.23;5.20;;;6.40;99.90;;;;;;5075048;28;20131;-74
2023/01/16 09:04:41;;;;;;;11.52;5.18;;;6.40;99.90;;;;;;5075158;28;20040;-74
2023/01/16 09:07:07;;;;;;;8.63;5.43;;;6.40;99.90;;;;;;5074993;28;20402;-74
2023/01/16 09:09:34;;;;;;;8.77;4.80;;;6.40;99.90;;;;;;5074837;28;20076;-74
2023/01/16 09:14:44;;;;;;;6.72;4.63;;;6.40;99.90;;;;;;5091906;28;20036;-74
2023/01/16 09:17:10;;;;;;;6.45;4.85;;;6.40;99.90;;;;;;5074795;28;20444;-74
2023/01/16 09:19:36;;;;;;;7.45;4.57;;;6.40;99.90;;;;;;5091446;28;20043;-74
2023/01/16 09:22:05;;;;;;;7.75;4.95;;;6.40;99.90;;;;;;5091659;28;20105;-74
2023/01/16 09:24:32;;;;;;;7.00;4.45;;;6.50;99.90;;;;;;5090086;28;20054;-74
2023/01/16 09:26:58;;;;;;;7.10;4.43;;;6.40;99.90;;;;;;5095177;28;20052;-74
2023/01/16 09:29:23;;;;;;;7.55;5.15;;;6.50;99.90;;;;;;5078216;28;20050;-74
2023/01/16 09:31:49;;;;;;;7.53;4.90;;;6.50;99.90;;;;;;5089120;28;20483;-74
2023/01/16 09:34:15;;;;;;;7.07;4.20;;;6.50;99.90;;;;;;5091482;28;20078;-74
2023/01/16 09:36:40;;;;;;;7.55;4.93;;;6.50;99.90;;;;;;5091459;28;20182;-74
2023/01/16 09:39:07;;;;;;;6.82;4.38;;;6.50;99.90;;;;;;5074250;28;20052;-74
2023/01/16 09:44:25;;;;;;;6.80;4.35;;;6.60;99.90;;;;;;5091393;28;20127;-74
2023/01/16 09:46:52;;;;;;;6.78;3.90;;;6.60;99.90;;;;;;5091050;28;20044;-74
2023/01/16 09:49:18;;;;;;;7.05;3.72;;;6.60;99.90;;;;;;5091288;28;20048;-74
2023/01/16 10:00:27;;;;;;;5.00;3.78;;;6.70;99.90;;;;;;5090829;28;20500;-74
2023/01/16 10:02:53;;;;;;;4.72;3.30;;;6.60;99.90;;;;;;5090963;28;20052;-74
2023/01/16 10:05:21;;;;;;;5.40;3.03;;;6.70;99.90;;;;;;5073833;28;20052;-74
2023/01/16 10:07:47;;;;;;;5.40;3.15;;;6.60;99.90;;;;;;5074119;28;20485;-74
2023/01/16 10:10:21;;;;;;;6.63;3.40;;;6.60;99.90;;;;;;5088680;28;20174;-73
2023/01/16 10:13:01;;;;;;;5.43;2.67;;;6.60;99.90;;;;;;5089050;28;20282;-73
2023/01/16 10:15:50;;;;;;;5.15;2.97;;;6.60;99.90;;;;;;5090682;28;20046;-73
2023/01/16 10:18:50;;;;;;;5.00;2.97;;;6.60;99.90;;;;;;5090174;28;20573;-73
2023/01/16 10:21:51;;;;;;;6.30;3.55;;;6.60;99.90;;;;;;5073909;28;20079;-73
2023/01/16 10:24:36;;;;;;;5.82;2.83;;;6.60;99.90;;;;;;5090394;28;20055;-73
2023/01/16 10:27:22;;;;;;;7.22;2.90;;;6.60;99.90;;;;;;5090238;28;20086;-73
2023/01/16 10:30:17;;;;;;;2.95;2.40;;;6.50;99.90;;;;;;5090288;28;20052;-73
2023/01/16 10:32:47;;;;;;;4.28;2.63;;;6.60;99.90;;;;;;5060930;28;20131;-73
2023/01/16 10:35:26;;;;;;;4.22;2.83;;;6.50;99.90;;;;;;5069532;28;20041;-73
2023/01/16 10:37:53;;;;;;;4.88;2.65;;;6.50;99.90;;;;;;5070147;28;20076;-73
2023/01/16 10:40:28;;;;;;;6.93;2.60;;;6.50;99.90;;;;;;5069754;28;20119;-73
2023/01/16 10:51:32;;;;;;;4.43;2.40;;;6.50;99.90;;;;;;5069919;28;20067;-72
2023/01/16 10:53:58;;;;;;;4.38;2.30;;;6.50;99.90;;;;;;5053160;28;20048;-71
2023/01/16 10:56:24;;;;;;;4.75;2.30;;;6.40;99.90;;;;;;5069820;28;20045;-71
2023/01/16 10:58:51;;;;;;;3.30;1.90;;;6.40;99.90;;;;;;5069868;28;20052;-71
2023/01/16 11:01:24;;;;;;;3.22;1.80;;;6.40;99.90;;;;;;5069481;28;20056;-71
2023/01/16 11:03:56;;;;;;;3.78;1.90;;;6.40;99.90;;;;;;5052888;28;20124;-71
2023/01/16 11:06:30;;;;;;;3.22;1.90;;;6.30;99.90;;;;;;5069430;28;20040;-71
2023/01/16 11:09:14;;;;;;;2.70;1.70;;;6.30;99.90;;;;;;5069615;28;20119;-71
2023/01/16 11:20:35;;;;;;;3.60;1.42;;;6.10;99.90;;;;;;5088593;28;20051;-71
2023/01/16 11:23:18;;;;;;;1.92;1.50;;;6.00;99.90;;;;;;5085321;28;20147;-71
2023/01/16 11:25:45;;;;;;;2.78;1.40;;;6.00;99.90;;;;;;5068618;28;20387;-71
2023/01/16 11:28:18;;;;;;;2.00;1.30;;;5.90;99.90;;;;;;5067515;28;20036;-71
2023/01/16 11:30:46;;;;;;;1.40;1.10;;;5.90;99.90;;;;;;5072599;28;20446;-71
2023/01/16 11:33:22;;;;;;;3.28;1.48;;;5.90;99.90;;;;;;5109406;28;20044;-71
2023/01/16 11:35:54;;;;;;;2.63;1.38;;;5.90;99.90;;;;;;5109562;28;20048;-71
2023/01/16 11:38:22;;;;;;;2.25;1.20;;;5.80;99.90;;;;;;5109497;28;20043;-71
2023/01/16 11:40:49;;;;;;;1.85;1.08;;;5.80;99.90;;;;;;5076108;28;20120;-71
2023/01/16 11:46:21;;;;;;;3.30;1.10;;;5.90;99.90;;;;;;5092426;28;20101;-71
2023/01/16 11:48:53;;;;;;;1.88;1.10;;;6.00;99.90;;;;;;5113695;28;20127;-71
2023/01/16 11:51:26;;;;;;;3.50;1.50;;;5.90;99.90;;;;;;5096633;28;20046;-71
2023/01/16 11:53:54;;;;;;;2.83;1.30;;;6.00;99.90;;;;;;5096898;28;20212;-71
2023/01/16 11:56:43;;;;;;;1.85;1.20;;;5.90;99.90;;;;;;5096440;28;20036;-71
2023/01/16 11:59:47;;;;;;;1.98;1.17;;;5.90;99.90;;;;;;5096147;28;20050;-71
2023/01/16 12:02:25;;;;;;;3.28;1.83;;;6.00;99.90;;;;;;5079431;28;20046;-72
2023/01/16 12:08:20;;;;;;;2.53;1.30;;;6.00;99.90;;;;;;5114765;28;20390;-71
2023/01/16 12:10:55;;;;;;;1.38;1.00;;;6.10;99.90;;;;;;5079148;28;20048;-71
2023/01/16 12:16:58;;;;;;;1.77;1.33;;;6.10;99.90;;;;;;5098133;28;20470;-71
2023/01/16 12:20:01;;;;;;;2.35;1.27;;;6.10;99.90;;;;;;5091677;27;20530;-77
2023/01/16 12:22:27;;;;;;;2.22;1.40;;;6.30;99.90;;;;;;5103731;28;20118;-77
2023/01/16 12:25:24;;;;;;;2.53;1.30;;;6.30;99.90;;;;;;5087669;27;20418;-76
2023/01/16 12:28:17;;;;;;;1.60;1.13;;;6.30;99.90;;;;;;5115849;27;20139;-79
2023/01/16 12:31:44;;;;;;;5.20;1.17;;;6.20;99.90;;;;;;5074808;28;20066;-75
2023/01/16 12:34:25;;;;;;;2.58;1.25;;;6.30;99.90;;;;;;5089869;28;20075;-76
2023/01/16 12:37:00;;;;;;;2.58;1.23;;;6.40;99.90;;;;;;5084214;28;20040;-76
2023/01/16 12:39:52;;;;;;;1.35;1.23;;;6.20;99.90;;;;;;5095796;28;20501;-76
2023/01/16 12:45:58;;;;;;;2.15;1.20;;;6.50;99.90;;;;;;5097135;27;20058;-76
2023/01/16 12:48:33;;;;;;;3.60;1.20;;;6.50;99.90;;;;;;5115980;27;20084;-75
2023/01/16 12:51:26;;;;;;;2.30;1.58;;;6.60;99.90;;;;;;5116208;27;20051;-75
2023/01/16 12:54:17;;;;;;;2.30;1.55;;;6.50;99.90;;;;;;5099434;28;20043;-75
2023/01/16 12:57:13;;;;;;;1.73;1.17;;;6.70;99.90;;;;;;5095586;28;20092;-75
2023/01/16 12:59:48;;;;;;;2.38;1.50;;;6.50;99.90;;;;;;5097110;27;20111;-76
2023/01/16 13:02:30;;;;;;;2.42;1.50;;;6.60;99.90;;;;;;5095039;28;20375;-75
2023/01/16 13:05:04;;;;;;;1.65;1.45;;;6.70;99.90;;;;;;5092386;28;20079;-76
2023/01/16 13:07:37;;;;;;;1.95;1.30;;;6.70;99.90;;;;;;5094784;28;20043;-76
2023/01/16 13:15:41;;;;;;;2.58;1.38;;;6.90;99.90;;;;;;5096015;27;20122;-75
2023/01/16 13:18:27;;;;;;;2.05;1.35;;;7.10;99.90;;;;;;5111120;28;20094;-78
2023/01/16 13:20:57;;;;;;;2.58;1.35;;;7.10;99.90;;;;;;5106565;27;20545;-78
2023/01/16 13:23:31;;;;;;;2.13;1.50;;;7.00;99.90;;;;;;5108803;28;20039;-78
2023/01/16 13:26:03;;;;;;;1.83;1.20;;;7.00;99.90;;;;;;5103058;27;20112;-78
2023/01/16 13:28:44;;;;;;;2.08;1.40;;;7.20;99.90;;;;;;5112078;27;20043;-78
2023/01/16 13:31:23;;;;;;;2.63;1.60;;;7.20;99.90;;;;;;5099388;28;20449;-77
2023/01/16 13:33:54;;;;;;;3.25;1.85;;;7.10;99.90;;;;;;5095713;27;20082;-78
2023/01/16 13:36:34;;;;;;;2.45;1.52;;;7.10;99.90;;;;;;5094541;28;20032;-80
2023/01/16 13:39:16;;;;;;;1.48;1.10;;;7.30;99.90;;;;;;5093173;28;20641;-79
2023/01/16 13:41:44;;;;;;;2.00;1.38;;;7.40;99.90;;;;;;5095698;28;20048;-72
2023/01/16 13:47:10;;;;;;;2.45;1.50;;;7.50;99.90;;;;;;5092981;28;20054;-72
2023/01/16 13:49:36;;;;;;;2.92;1.67;;;7.40;99.90;;;;;;5094160;28;20494;-73
2023/01/16 13:52:03;;;;;;;3.58;1.40;;;7.20;99.90;;;;;;5097437;27;20068;-72
2023/01/16 13:54:52;;;;;;;3.10;1.45;;;7.40;99.90;;;;;;5114384;27;20042;-72
2023/01/16 13:57:23;;;;;;;2.75;1.30;;;7.60;99.90;;;;;;5099109;28;20039;-72
2023/01/16 14:00:00;;;;;;;2.65;1.50;;;7.30;99.90;;;;;;5100175;28;20046;-72
2023/01/16 14:02:35;;;;;;;;;;;7.60;99.90;;;;;;5113519;27;20162;-72
2023/01/16 14:05:24;;;;;;;2.60;1.55;;;7.50;99.90;;;;;;5104154;28;19920;-79
2023/01/16 14:11:14;;;;;;;1.95;1.40;;;7.50;99.90;;;;;;5018505;28;20077;-72
2023/01/16 14:13:40;;;;;;;2.20;1.40;;;7.70;99.90;;;;;;5061511;28;20576;-72
2023/01/16 14:18:55;;;;;;;2.60;1.60;;;7.60;99.90;;;;;;5088865;28;20507;-72
2023/01/16 14:21:26;;;;;;;2.65;1.50;;;7.80;99.90;;;;;;5103409;28;20123;-72
2023/01/16 14:24:01;;;;;;;2.20;1.50;;;7.80;99.90;;;;;;5091990;27;20413;-72
2023/01/16 14:27:09;;;;;;;2.78;1.60;;;7.80;99.90;;;;;;5089208;28;20531;-72
2023/01/16 14:29:49;;;;;;;3.50;1.20;;;7.50;99.90;;;;;;5035637;28;20528;-72
2023/01/16 14:32:15;;;;;;;1.77;1.33;;;7.80;99.90;;;;;;5034651;28;20064;-72
2023/01/16 14:34:46;;;;;;;2.03;1.33;;;7.60;99.90;;;;;;5047391;28;20047;-72
2023/01/16 14:37:21;;;;;;;2.05;1.52;;;7.60;99.90;;;;;;5086578;28;20036;-79
2023/01/16 14:40:08;;;;;;;2.25;1.10;;;7.60;99.90;;;;;;5083335;28;20118;-79
2023/01/16 14:57:06;;;;;;;3.22;1.40;;;8.00;99.90;;;;;;5084426;28;20115;-78
2023/01/16 14:59:34;;;;;;;1.92;1.30;;;7.70;99.90;;;;;;5085438;28;20039;-79
2023/01/16 15:02:20;;;;;;;2.42;1.10;;;7.80;99.90;;;;;;5086852;28;20031;-79